Wilsall, Montana
Current Conditions -  °F | °C
As of 11:53 AM on Sunday 23 Nov 2014 (Local Time) from KLVM Reporting Station
Overcast Overcast  
Wind Chill: 26°   Ceiling: 5500
Heat Index: 37°   Visibility: 10mi
Dew Point: 16°   Wind: 22mph
Humidity: 42%   Direction: 260°W
Pressure: 29.98"   Gusts: 31mph
Location:  45.99°N, 110.66°W
Report Text: KLVM 231853Z AUTO 26019G27KT 10SM BKN055 OVC070 03/M09 A2998 RMK AO2 PK WND 26028/1818 SLP168 T00281089
Loading
Personal Weather Stations






























Interactive Weather Map New forecast layout! Learn more

10-Day Weather Forecast

Advertisements
Track Severe Weather on mobile